createdAt,value
2022-11-21T00:01:25.232Z,99533.69
2022-11-21T00:03:52.141Z,99532.81
2022-11-21T00:06:19.494Z,99533.69
2022-11-21T00:08:46.581Z,99528.56
2022-11-21T00:11:13.717Z,99525.97
2022-11-21T00:13:40.440Z,99528.59
2022-11-21T00:16:10.311Z,99515.56
2022-11-21T00:18:37.344Z,99510.34
2022-11-21T00:21:08.596Z,99512.91
2022-11-21T00:23:35.206Z,99512.09
2022-11-21T00:26:09.535Z,99507.81
2022-11-21T00:28:36.336Z,99512.16
2022-11-21T00:31:03.818Z,99502.59
2022-11-21T00:33:30.708Z,99497.44
2022-11-21T00:35:57.577Z,99500.94
2022-11-21T00:38:24.170Z,99497.41
2022-11-21T00:40:50.758Z,99489.59
2022-11-21T00:43:17.368Z,99486.13
2022-11-21T00:45:43.971Z,99488.69
2022-11-21T00:48:10.571Z,99488.66
2022-11-21T00:50:37.152Z,99499.91
2022-11-21T00:53:03.737Z,99494.75
2022-11-21T00:55:30.317Z,99486.97
2022-11-21T00:57:56.918Z,99485.22
2022-11-21T01:00:23.571Z,99487.81
2022-11-21T01:02:50.150Z,99495.66
2022-11-21T01:05:16.779Z,99495.69
2022-11-21T01:07:43.468Z,99501.63
2022-11-21T01:10:10.141Z,99489.59
2022-11-21T01:12:36.775Z,99480.06
2022-11-21T01:15:03.775Z,99476.66
2022-11-21T01:17:32.934Z,99479.13
2022-11-21T01:19:59.886Z,99475.63
2022-11-21T01:22:26.469Z,99478.16
2022-11-21T01:24:53.063Z,99473.06
2022-11-21T01:27:19.751Z,99471.34
2022-11-21T01:29:46.389Z,99474.81
2022-11-21T01:32:12.999Z,99481.72
2022-11-21T01:34:39.632Z,99475.59
2022-11-21T01:37:06.223Z,99479.63
2022-11-21T01:39:32.817Z,99479.69
2022-11-21T01:41:59.419Z,99465.97
2022-11-21T01:44:45.505Z,99455.75
2022-11-21T01:47:12.092Z,99460.00
2022-11-21T01:49:41.011Z,99452.25
2022-11-21T01:52:19.511Z,99451.50
2022-11-21T01:54:52.181Z,99456.69
2022-11-21T01:57:27.729Z,99454.06
2022-11-21T02:00:03.678Z,99460.97
2022-11-21T02:02:37.598Z,99467.63
2022-11-21T02:05:07.819Z,99467.59
2022-11-21T02:07:38.521Z,99467.00
2022-11-21T02:10:06.795Z,99470.47
2022-11-21T02:12:53.396Z,99467.78
2022-11-21T02:15:24.583Z,99471.25
2022-11-21T02:17:51.274Z,99459.19
2022-11-21T02:20:20.144Z,99454.94
2022-11-21T02:23:07.991Z,99454.13
2022-11-21T02:25:36.994Z,99448.09
2022-11-21T02:28:06.859Z,99451.47
2022-11-21T02:30:37.346Z,99437.69
2022-11-21T02:33:04.255Z,99445.31
2022-11-21T02:35:32.155Z,99443.66
2022-11-21T02:38:16.937Z,99444.59
2022-11-21T02:40:51.503Z,99438.50
2022-11-21T02:43:24.507Z,99438.47
2022-11-21T02:45:51.124Z,99441.91
2022-11-21T02:48:17.718Z,99446.19
2022-11-21T02:50:46.776Z,99447.09
2022-11-21T02:53:16.725Z,99454.84
2022-11-21T02:55:44.216Z,99457.72
2022-11-21T02:58:11.178Z,99456.00
2022-11-21T03:00:39.638Z,99457.97
2022-11-21T03:03:06.855Z,99455.56
2022-11-21T03:05:33.646Z,99465.03
2022-11-21T03:08:00.301Z,99456.47
2022-11-21T03:10:27.345Z,99448.66
2022-11-21T03:12:53.930Z,99440.03
2022-11-21T03:15:20.511Z,99430.69
2022-11-21T03:17:48.849Z,99432.38
2022-11-21T03:20:15.610Z,99440.16
2022-11-21T03:22:42.193Z,99447.84
2022-11-21T03:25:09.085Z,99442.53
2022-11-21T03:27:35.675Z,99446.81
2022-11-21T03:30:02.294Z,99436.50
2022-11-21T03:32:28.859Z,99429.63
2022-11-21T03:34:55.454Z,99437.44
2022-11-21T03:37:22.275Z,99427.09
2022-11-21T03:39:48.868Z,99423.72
2022-11-21T03:42:15.503Z,99418.53
2022-11-21T03:44:42.155Z,99419.41
2022-11-21T03:47:08.734Z,99423.78
2022-11-21T03:49:35.435Z,99423.66
2022-11-21T03:52:01.994Z,99428.84
2022-11-21T03:54:28.857Z,99424.50
2022-11-21T03:56:55.596Z,99428.88
2022-11-21T03:59:22.198Z,99415.75
2022-11-21T04:01:48.890Z,99422.06
2022-11-21T04:04:15.543Z,99422.34
2022-11-21T04:06:42.155Z,99417.28
2022-11-21T04:09:08.894Z,99424.25
2022-11-21T04:11:35.467Z,99419.25
2022-11-21T04:14:02.078Z,99421.84
2022-11-21T04:16:28.703Z,99415.00
2022-11-21T04:18:55.307Z,99413.25
2022-11-21T04:21:21.885Z,99412.41
2022-11-21T04:23:48.596Z,99408.13
2022-11-21T04:26:15.186Z,99398.63
2022-11-21T04:28:41.786Z,99409.00
2022-11-21T04:31:11.048Z,99408.03
2022-11-21T04:33:39.043Z,99402.97
2022-11-21T04:36:07.247Z,99406.41
2022-11-21T04:38:33.847Z,99403.78
2022-11-21T04:41:00.489Z,99397.84
2022-11-21T04:43:27.113Z,99392.50
2022-11-21T04:45:53.689Z,99400.50
2022-11-21T04:48:20.323Z,99394.41
2022-11-21T04:50:46.916Z,99388.47
2022-11-21T04:53:13.496Z,99383.34
2022-11-21T04:55:40.168Z,99375.63
2022-11-21T04:58:06.754Z,99379.09
2022-11-21T05:00:33.335Z,99366.16
2022-11-21T05:03:04.501Z,99375.59
2022-11-21T05:05:31.458Z,99373.84
2022-11-21T05:07:58.357Z,99367.78
2022-11-21T05:10:25.085Z,99360.91
2022-11-21T05:13:00.981Z,99355.66
2022-11-21T05:15:27.594Z,99357.44
2022-11-21T05:17:54.166Z,99362.50
2022-11-21T05:20:20.744Z,99370.25
2022-11-21T05:22:51.792Z,99365.03
2022-11-21T05:25:18.449Z,99363.28
2022-11-21T05:27:45.064Z,99366.78
2022-11-21T05:30:12.562Z,99367.63
2022-11-21T05:32:39.155Z,99371.06
2022-11-21T05:35:06.092Z,99363.38
2022-11-21T05:37:32.686Z,99359.06
2022-11-21T05:39:59.348Z,99357.25
2022-11-21T05:42:25.979Z,99362.34
2022-11-21T05:44:52.552Z,99351.09
2022-11-21T05:47:19.158Z,99353.72
2022-11-21T05:49:45.804Z,99360.69
2022-11-21T05:52:12.395Z,99356.19
2022-11-21T05:54:42.382Z,99351.00
2022-11-21T05:57:11.549Z,99343.25
2022-11-21T05:59:38.115Z,99346.75
2022-11-21T06:02:04.688Z,99356.22
2022-11-21T06:04:31.332Z,99346.56
2022-11-21T06:06:57.957Z,99342.97
2022-11-21T06:09:24.561Z,99345.81
2022-11-21T06:11:51.122Z,99354.50
2022-11-21T06:14:17.770Z,99346.66
2022-11-21T06:16:44.417Z,99355.22
2022-11-21T06:19:10.989Z,99370.19
2022-11-21T06:21:37.596Z,99363.25
2022-11-21T06:24:04.413Z,99373.59
2022-11-21T06:26:30.998Z,99374.00
2022-11-21T06:28:57.586Z,99367.34
2022-11-21T06:31:27.675Z,99362.25
2022-11-21T06:33:58.972Z,99367.00
2022-11-21T06:36:26.061Z,99384.19
2022-11-21T06:38:56.267Z,99377.25
2022-11-21T06:41:25.701Z,99377.78
2022-11-21T06:43:52.940Z,99382.44
2022-11-21T06:46:19.519Z,99386.25
2022-11-21T06:48:46.184Z,99391.31
2022-11-21T06:51:18.510Z,99389.53
2022-11-21T06:53:46.266Z,99395.78
2022-11-21T06:56:12.904Z,99406.16
2022-11-21T06:58:39.502Z,99404.34
2022-11-21T07:01:08.165Z,99412.53
2022-11-21T07:03:35.460Z,99410.22
2022-11-21T07:06:03.197Z,99413.91
2022-11-21T07:08:31.793Z,99421.75
2022-11-21T07:11:25.451Z,99418.31
2022-11-21T07:13:52.777Z,99423.03
2022-11-21T07:16:19.416Z,99424.72
2022-11-21T07:18:46.063Z,99423.09
2022-11-21T07:21:12.871Z,99423.06
2022-11-21T07:23:39.469Z,99421.63
2022-11-21T07:26:08.359Z,99416.28
2022-11-21T07:28:35.096Z,99411.41
2022-11-21T07:31:02.506Z,99419.03
2022-11-21T07:33:29.302Z,99423.47
2022-11-21T07:35:56.765Z,99414.84
2022-11-21T07:38:24.350Z,99420.94
2022-11-21T07:40:50.928Z,99427.88
2022-11-21T07:43:17.932Z,99420.16
2022-11-21T07:45:44.545Z,99427.16
2022-11-21T07:48:11.140Z,99423.66
2022-11-21T07:50:37.745Z,99412.25
2022-11-21T07:53:05.935Z,99429.53
2022-11-21T07:55:37.648Z,99419.50
2022-11-21T07:58:09.342Z,99428.88
2022-11-21T08:00:38.967Z,99421.66
2022-11-21T08:03:05.736Z,99418.13
2022-11-21T08:05:39.306Z,99424.38
2022-11-21T08:08:06.617Z,99428.34
2022-11-21T08:10:33.581Z,99432.00
2022-11-21T08:13:00.205Z,99431.06
2022-11-21T08:15:26.795Z,99445.53
2022-11-21T08:17:53.466Z,99443.69
2022-11-21T08:20:20.049Z,99440.09
2022-11-21T08:22:46.675Z,99444.88
2022-11-21T08:25:13.286Z,99444.97
2022-11-21T08:27:40.274Z,99454.41
2022-11-21T08:30:08.861Z,99449.16
2022-11-21T08:32:35.555Z,99462.03
2022-11-21T08:35:02.210Z,99458.72
2022-11-21T08:37:29.432Z,99458.31
2022-11-21T08:39:57.149Z,99460.59
2022-11-21T08:42:23.718Z,99454.41
2022-11-21T08:44:50.310Z,99456.25
2022-11-21T08:47:16.883Z,99460.69
2022-11-21T08:49:43.480Z,99458.84
2022-11-21T08:52:10.049Z,99464.16
2022-11-21T08:54:36.670Z,99468.38
2022-11-21T08:57:03.330Z,99469.81
2022-11-21T08:59:29.905Z,99468.88
2022-11-21T09:01:56.546Z,99482.72
2022-11-21T09:04:23.172Z,99465.94
2022-11-21T09:06:49.742Z,99466.72
2022-11-21T09:09:19.406Z,99467.59
2022-11-21T09:11:50.515Z,99474.13
2022-11-21T09:14:17.169Z,99466.47
2022-11-21T09:16:43.980Z,99468.41
2022-11-21T09:19:10.607Z,99469.06
2022-11-21T09:21:37.174Z,99465.50
2022-11-21T09:24:03.894Z,99462.94
2022-11-21T09:26:30.478Z,99448.59
2022-11-21T09:28:57.046Z,99445.13
2022-11-21T09:31:23.637Z,99450.66
2022-11-21T09:33:54.793Z,99447.06
2022-11-21T09:36:21.738Z,99445.38
2022-11-21T09:38:48.334Z,99445.41
2022-11-21T09:41:37.910Z,99447.28
2022-11-21T09:44:32.068Z,99443.75
2022-11-21T09:47:21.127Z,99434.25
2022-11-21T09:50:04.488Z,99439.56
2022-11-21T09:52:38.381Z,99434.34
2022-11-21T09:55:14.160Z,99449.03
2022-11-21T09:57:40.999Z,99441.22
2022-11-21T10:00:19.795Z,99437.81
2022-11-21T10:02:47.044Z,99438.53
2022-11-21T10:05:15.016Z,99438.69
2022-11-21T10:07:43.087Z,99431.72
2022-11-21T10:10:21.768Z,99434.31
2022-11-21T10:13:02.401Z,99437.75
2022-11-21T10:15:44.164Z,99438.59
2022-11-21T10:19:01.392Z,99439.44
2022-11-21T10:21:57.883Z,99439.41
2022-11-21T10:24:55.511Z,99440.34
2022-11-21T10:27:50.009Z,99437.78
2022-11-21T10:30:21.104Z,99433.41
2022-11-21T10:32:51.701Z,99429.16
2022-11-21T10:35:22.520Z,99423.09
2022-11-21T10:37:54.392Z,99421.38
2022-11-21T10:40:38.146Z,99413.63
2022-11-21T10:43:36.045Z,99412.78
2022-11-21T10:46:02.705Z,99411.03
2022-11-21T10:48:29.293Z,99410.16
2022-11-21T10:51:13.701Z,99416.25
2022-11-21T10:53:40.711Z,99407.59
2022-11-21T10:56:07.328Z,99403.28
2022-11-21T10:58:44.682Z,99404.09
2022-11-21T11:01:30.654Z,99407.59
2022-11-21T11:06:57.084Z,99409.34
2022-11-21T11:09:30.729Z,99406.75
2022-11-21T11:12:28.916Z,99411.91
2022-11-21T11:14:56.561Z,99403.28
2022-11-21T11:17:32.928Z,99400.69
2022-11-21T11:20:06.875Z,99391.19
2022-11-21T11:22:33.794Z,99395.41
2022-11-21T11:25:03.891Z,99397.22
2022-11-21T11:27:30.453Z,99398.09
2022-11-21T11:29:57.073Z,99390.31
2022-11-21T11:32:23.977Z,99393.59
2022-11-21T11:34:50.527Z,99388.53
2022-11-21T11:37:31.267Z,99385.13
2022-11-21T11:40:21.513Z,99378.22
2022-11-21T11:43:06.171Z,99373.81
2022-11-21T11:45:32.734Z,99377.13
2022-11-21T11:48:02.119Z,99364.25
2022-11-21T11:50:33.198Z,99360.84
2022-11-21T11:53:07.621Z,99363.31
2022-11-21T11:55:52.023Z,99362.41
2022-11-21T11:59:00.011Z,99355.50
2022-11-21T12:01:49.553Z,99345.66
2022-11-21T12:04:25.503Z,99341.78
2022-11-21T12:10:16.558Z,99342.31
2022-11-21T12:12:49.606Z,99339.91
2022-11-21T12:15:36.981Z,99328.84
2022-11-21T12:18:15.915Z,99336.78
2022-11-21T12:21:00.111Z,99327.41
2022-11-21T12:23:31.528Z,99320.38
2022-11-21T12:26:20.046Z,99319.09
2022-11-21T12:29:14.510Z,99315.28
2022-11-21T12:32:06.003Z,99314.69
2022-11-21T12:35:03.241Z,99313.34
2022-11-21T12:37:44.734Z,99309.53
2022-11-21T12:40:40.244Z,99309.38
2022-11-21T12:43:29.602Z,99318.53
2022-11-21T12:46:25.039Z,99311.00
2022-11-21T12:49:03.431Z,99311.06
2022-11-21T12:51:58.922Z,99311.88
2022-11-21T12:54:47.191Z,99308.13
2022-11-21T12:57:16.428Z,99305.59
2022-11-21T13:00:00.891Z,99305.94
2022-11-21T13:02:48.752Z,99299.28
2022-11-21T13:05:28.619Z,99309.94
2022-11-21T13:08:04.479Z,99317.50
2022-11-21T13:10:32.528Z,99304.84
2022-11-21T13:13:11.098Z,99303.53
2022-11-21T13:15:49.739Z,99312.16
2022-11-21T13:18:30.692Z,99315.88
2022-11-21T13:20:57.293Z,99311.81
2022-11-21T13:23:41.888Z,99316.78
2022-11-21T13:26:26.845Z,99320.06
2022-11-21T13:29:11.301Z,99325.00
2022-11-21T13:31:38.286Z,99319.63
2022-11-21T13:34:06.009Z,99315.69
2022-11-21T13:36:32.615Z,99313.06
2022-11-21T13:38:59.135Z,99308.63
2022-11-21T13:41:34.880Z,99317.69
2022-11-21T13:44:32.648Z,99311.47
2022-11-21T13:47:08.347Z,99317.41
2022-11-21T13:49:54.330Z,99312.13
2022-11-21T13:52:36.113Z,99316.88
2022-11-21T13:55:08.430Z,99322.94
2022-11-21T13:57:56.446Z,99331.31
2022-11-21T14:00:54.283Z,99335.50
2022-11-21T14:03:36.021Z,99327.97
2022-11-21T14:06:19.613Z,99331.97
2022-11-21T14:09:22.474Z,99317.66
2022-11-21T14:11:52.280Z,99320.97
2022-11-21T14:14:32.472Z,99320.16
2022-11-21T14:17:23.785Z,99319.84
2022-11-21T14:19:52.593Z,99319.84
2022-11-21T14:22:33.427Z,99319.00
2022-11-21T14:25:01.387Z,99321.91
2022-11-21T14:27:31.163Z,99321.13
2022-11-21T14:29:58.511Z,99306.75
2022-11-21T14:32:29.643Z,99310.03
2022-11-21T14:35:20.052Z,99308.06
2022-11-21T14:37:48.179Z,99307.72
2022-11-21T14:40:22.604Z,99317.69
2022-11-21T14:42:49.604Z,99315.88
2022-11-21T14:45:19.364Z,99312.75
2022-11-21T14:47:50.705Z,99320.13
2022-11-21T14:50:35.097Z,99326.03
2022-11-21T14:53:03.631Z,99341.22
2022-11-21T14:55:32.651Z,99340.06
2022-11-21T14:58:02.337Z,99344.69
2022-11-21T15:00:57.984Z,99342.97
2022-11-21T15:03:20.278Z,99332.34
2022-11-21T15:06:04.008Z,99336.13
2022-11-21T15:11:35.583Z,99354.09
2022-11-21T15:14:16.784Z,99353.28
2022-11-21T15:16:47.433Z,99349.63
2022-11-21T15:19:21.112Z,99349.56
2022-11-21T15:21:47.786Z,99344.94
2022-11-21T15:24:29.537Z,99354.19
2022-11-21T15:26:56.310Z,99351.25
2022-11-21T15:29:22.944Z,99362.31
2022-11-21T15:32:15.899Z,99354.94
2022-11-21T15:34:43.334Z,99357.50
2022-11-21T15:37:16.609Z,99357.25
2022-11-21T15:39:48.706Z,99360.00
2022-11-21T15:42:33.924Z,99369.28
2022-11-21T15:45:19.566Z,99371.59
2022-11-21T15:47:47.082Z,99374.47
2022-11-21T15:50:15.673Z,99379.13
2022-11-21T15:52:45.847Z,99375.97
2022-11-21T15:55:19.173Z,99377.84
2022-11-21T15:57:47.012Z,99377.38
2022-11-21T16:00:14.531Z,99377.31
2022-11-21T16:02:41.184Z,99374.72
2022-11-21T16:05:11.764Z,99377.09
2022-11-21T16:07:38.405Z,99378.53
2022-11-21T16:10:06.047Z,99370.72
2022-11-21T16:12:33.097Z,99371.56
2022-11-21T16:14:59.669Z,99375.97
2022-11-21T16:17:26.258Z,99373.44
2022-11-21T16:19:52.833Z,99378.19
2022-11-21T16:22:19.433Z,99370.13
2022-11-21T16:24:46.016Z,99363.28
2022-11-21T16:27:12.649Z,99351.75
2022-11-21T16:29:39.271Z,99349.13
2022-11-21T16:32:06.073Z,99351.78
2022-11-21T16:34:32.679Z,99357.06
2022-11-21T16:37:04.214Z,99350.16
2022-11-21T16:39:34.315Z,99341.25
2022-11-21T16:42:01.235Z,99348.78
2022-11-21T16:44:30.336Z,99339.03
2022-11-21T16:46:57.098Z,99340.91
2022-11-21T16:49:23.685Z,99335.56
2022-11-21T16:51:50.266Z,99344.41
2022-11-21T16:54:16.855Z,99345.59
2022-11-21T16:56:43.586Z,99354.38
2022-11-21T16:59:10.291Z,99350.22
2022-11-21T17:01:36.937Z,99344.97
2022-11-21T17:04:03.690Z,99349.41
2022-11-21T17:06:31.273Z,99349.75
2022-11-21T17:08:59.827Z,99350.44
2022-11-21T17:11:29.568Z,99348.13
2022-11-21T17:13:59.866Z,99348.06
2022-11-21T17:16:27.245Z,99351.63
2022-11-21T17:18:55.502Z,99343.81
2022-11-21T17:21:22.849Z,99347.78
2022-11-21T17:23:49.887Z,99351.16
2022-11-21T17:26:19.049Z,99359.69
2022-11-21T17:28:54.170Z,99364.19
2022-11-21T17:31:21.340Z,99367.53
2022-11-21T17:33:48.698Z,99365.72
2022-11-21T17:36:15.396Z,99366.59
2022-11-21T17:38:42.505Z,99370.09
2022-11-21T17:41:11.746Z,99373.88
2022-11-21T17:43:39.081Z,99372.28
2022-11-21T17:46:09.885Z,99374.63
2022-11-21T17:48:37.711Z,99376.66
2022-11-21T17:51:07.650Z,99370.66
2022-11-21T17:53:36.885Z,99371.50
2022-11-21T17:56:06.037Z,99378.50
2022-11-21T17:58:33.497Z,99376.13
2022-11-21T18:01:02.856Z,99383.69
2022-11-21T18:03:29.878Z,99369.69
2022-11-21T18:06:08.234Z,99362.00
2022-11-21T18:08:39.556Z,99369.91
2022-11-21T18:11:08.340Z,99367.03
2022-11-21T18:13:36.172Z,99368.16
2022-11-21T18:16:05.580Z,99377.31
2022-11-21T18:18:34.479Z,99378.59
2022-11-21T18:21:04.025Z,99369.78
2022-11-21T18:23:30.827Z,99369.59
2022-11-21T18:26:05.669Z,99369.56
2022-11-21T18:28:32.645Z,99363.56
2022-11-21T18:31:13.398Z,99360.06
2022-11-21T18:33:41.170Z,99367.84
2022-11-21T18:36:09.486Z,99364.97
2022-11-21T18:39:00.497Z,99359.66
2022-11-21T18:41:28.951Z,99350.97
2022-11-21T18:44:06.463Z,99352.41
2022-11-21T18:46:34.766Z,99357.56
2022-11-21T18:49:05.368Z,99373.00
2022-11-21T18:51:32.995Z,99361.09
2022-11-21T18:54:04.743Z,99361.84
2022-11-21T18:56:31.389Z,99359.41
2022-11-21T18:58:59.078Z,99358.34
2022-11-21T19:01:28.169Z,99368.53
2022-11-21T19:03:55.662Z,99361.09
2022-11-21T19:06:24.309Z,99356.13
2022-11-21T19:08:52.764Z,99358.56
2022-11-21T19:11:21.696Z,99353.59
2022-11-21T19:13:48.719Z,99358.03
2022-11-21T19:16:18.310Z,99359.47
2022-11-21T19:18:59.901Z,99363.16
2022-11-21T19:21:35.585Z,99361.44
2022-11-21T19:24:02.335Z,99356.66
2022-11-21T19:26:31.139Z,99355.09
2022-11-21T19:28:58.772Z,99363.09
2022-11-21T19:31:25.640Z,99361.19
2022-11-21T19:33:52.306Z,99364.91
2022-11-21T19:36:20.777Z,99370.53
2022-11-21T19:38:50.872Z,99368.34
2022-11-21T19:41:21.136Z,99368.75
2022-11-21T19:43:55.762Z,99373.00
2022-11-21T19:46:24.772Z,99370.47
2022-11-21T19:48:53.270Z,99364.91
2022-11-21T19:51:21.444Z,99370.75
2022-11-21T19:53:48.969Z,99370.25
2022-11-21T19:56:17.987Z,99375.56
2022-11-21T19:58:45.283Z,99374.22
2022-11-21T20:01:14.193Z,99374.56
2022-11-21T20:03:42.697Z,99382.59
2022-11-21T20:06:16.957Z,99379.72
2022-11-21T20:08:43.967Z,99379.72
2022-11-21T20:11:13.283Z,99384.34
2022-11-21T20:13:41.601Z,99385.75
2022-11-21T20:16:17.647Z,99387.75
2022-11-21T20:18:44.460Z,99393.75
2022-11-21T20:21:12.135Z,99397.41
2022-11-21T20:23:39.728Z,99383.56
2022-11-21T20:26:07.686Z,99387.22
2022-11-21T20:28:35.490Z,99384.66
2022-11-21T20:31:12.937Z,99385.78
2022-11-21T20:33:45.573Z,99385.22
2022-11-21T20:36:14.653Z,99386.44
2022-11-21T20:38:41.259Z,99377.88
2022-11-21T20:41:07.945Z,99388.56
2022-11-21T20:44:14.514Z,99384.81
2022-11-21T20:46:21.438Z,99384.63
2022-11-21T20:48:48.502Z,99384.09
2022-11-21T20:54:03.984Z,99366.50
2022-11-21T20:56:35.648Z,99362.59
2022-11-21T20:59:02.745Z,99373.47
2022-11-21T21:01:29.468Z,99369.06
2022-11-21T21:03:56.104Z,99377.38
2022-11-21T21:06:23.300Z,99367.91
2022-11-21T21:08:50.914Z,99365.31
2022-11-21T21:11:44.657Z,99365.31
2022-11-21T21:14:06.314Z,99362.59
2022-11-21T21:16:32.877Z,99365.09
2022-11-21T21:18:59.594Z,99349.22
2022-11-21T21:21:28.191Z,99353.47
2022-11-21T21:24:00.611Z,99345.34
2022-11-21T21:26:38.629Z,99336.59
2022-11-21T21:29:13.124Z,99328.09
2022-11-21T21:31:42.898Z,99322.66
2022-11-21T21:34:13.585Z,99319.00
2022-11-21T21:36:40.185Z,99320.81
2022-11-21T21:39:06.766Z,99323.22
2022-11-21T21:41:33.368Z,99316.41
2022-11-21T21:44:00.109Z,99310.84
2022-11-21T21:46:28.149Z,99308.09
2022-11-21T21:48:56.667Z,99297.81
2022-11-21T21:51:28.222Z,99298.50
2022-11-21T21:53:55.924Z,99305.34
2022-11-21T21:56:23.852Z,99311.88
2022-11-21T21:58:51.441Z,99312.91
2022-11-21T22:01:23.996Z,99317.31
2022-11-21T22:03:59.363Z,99312.53
2022-11-21T22:06:26.618Z,99312.34
2022-11-21T22:08:54.592Z,99318.16
2022-11-21T22:11:23.803Z,99317.03
2022-11-21T22:13:55.332Z,99318.78
2022-11-21T22:16:21.899Z,99321.63
2022-11-21T22:18:48.476Z,99328.00
2022-11-21T22:21:15.681Z,99328.31
2022-11-21T22:23:56.501Z,99336.28
2022-11-21T22:26:29.742Z,99335.19
2022-11-21T22:28:56.329Z,99332.94
2022-11-21T22:31:22.947Z,99332.09
2022-11-21T22:33:49.523Z,99337.88
2022-11-21T22:36:18.282Z,99337.16
2022-11-21T22:38:45.737Z,99339.44
2022-11-21T22:41:18.887Z,99341.91
2022-11-21T22:43:53.462Z,99353.91
2022-11-21T22:46:20.171Z,99350.31
2022-11-21T22:48:47.409Z,99345.25
2022-11-21T22:51:15.117Z,99337.34
2022-11-21T22:53:41.748Z,99339.66
2022-11-21T22:56:10.351Z,99340.44
2022-11-21T22:58:39.567Z,99337.09
2022-11-21T23:01:14.173Z,99338.91
2022-11-21T23:03:41.672Z,99331.09
2022-11-21T23:06:14.503Z,99328.88
2022-11-21T23:08:42.080Z,99328.97
2022-11-21T23:11:20.362Z,99321.09
2022-11-21T23:13:47.644Z,99324.28
2022-11-21T23:16:15.446Z,99317.78
2022-11-21T23:18:42.497Z,99302.78
2022-11-21T23:21:09.563Z,99312.50
2022-11-21T23:23:36.373Z,99307.19
2022-11-21T23:26:03.859Z,99307.38
2022-11-21T23:28:30.880Z,99300.38
2022-11-21T23:30:57.531Z,99282.88
2022-11-21T23:33:24.125Z,99282.78
2022-11-21T23:35:51.045Z,99276.69
2022-11-21T23:38:18.014Z,99273.13
2022-11-21T23:40:45.881Z,99282.72
2022-11-21T23:43:13.045Z,99275.56
2022-11-21T23:45:39.626Z,99279.41
2022-11-21T23:48:06.299Z,99279.44
2022-11-21T23:50:32.888Z,99283.66
2022-11-21T23:52:59.565Z,99277.50
2022-11-21T23:55:26.157Z,99274.66
2022-11-21T23:57:52.751Z,99268.72
